createdAt,value
2018-06-30T00:02:18.820Z,97922.75
2018-06-30T00:04:51.918Z,97920.72
2018-06-30T00:07:21.678Z,97908.55
2018-06-30T00:09:50.153Z,97925.80
2018-06-30T00:12:18.669Z,97933.91
2018-06-30T00:14:47.661Z,97901.45
2018-06-30T00:17:16.183Z,97940.00
2018-06-30T00:19:44.674Z,97895.36
2018-06-30T00:22:13.280Z,97936.95
2018-06-30T00:24:41.796Z,97925.80
2018-06-30T00:27:16.174Z,97927.83
2018-06-30T00:29:44.821Z,97945.08
2018-06-30T00:32:13.322Z,97980.59
2018-06-30T00:34:41.975Z,97959.28
2018-06-30T00:37:10.482Z,97952.17
2018-06-30T00:39:38.949Z,97964.36
2018-06-30T00:42:07.454Z,97974.50
2018-06-30T00:44:36.075Z,97959.28
2018-06-30T00:47:04.565Z,97968.41
2018-06-30T00:49:33.033Z,97956.23
2018-06-30T00:52:01.542Z,97968.41
2018-06-30T00:54:30.031Z,98014.08
2018-06-30T00:56:58.570Z,98017.12
2018-06-30T00:59:27.077Z,97986.68
2018-06-30T01:01:55.553Z,98016.11
2018-06-30T01:04:24.316Z,98012.05
2018-06-30T01:06:52.857Z,97998.86
2018-06-30T01:09:21.429Z,98021.17
2018-06-30T01:11:50.379Z,98027.27
2018-06-30T01:14:18.881Z,98024.22
2018-06-30T01:16:47.385Z,98040.45
2018-06-30T01:19:15.902Z,98042.48
2018-06-30T01:21:44.761Z,98046.55
2018-06-30T01:24:13.302Z,98034.37
2018-06-30T01:26:41.778Z,98046.55
2018-06-30T01:29:10.322Z,98066.84
2018-06-30T01:31:38.813Z,98045.53
2018-06-30T01:34:07.324Z,98045.53
2018-06-30T01:36:35.841Z,98066.84
2018-06-30T01:39:06.147Z,98070.90
2018-06-30T01:41:34.769Z,98071.91
2018-06-30T01:44:03.797Z,98097.28
2018-06-30T01:46:32.369Z,98079.02
2018-06-30T01:49:00.857Z,98091.19
2018-06-30T01:51:29.660Z,98101.34
2018-06-30T01:53:58.197Z,98103.37
2018-06-30T01:56:26.887Z,98076.98
2018-06-30T01:58:55.374Z,98083.08
2018-06-30T02:01:23.849Z,98090.18
2018-06-30T02:03:52.464Z,98093.22
2018-06-30T02:06:21.017Z,98085.11
2018-06-30T02:08:49.678Z,98104.39
2018-06-30T02:11:18.242Z,98108.45
2018-06-30T02:13:46.733Z,98112.50
2018-06-30T02:16:15.259Z,98143.96
2018-06-30T02:18:43.797Z,98167.30
2018-06-30T02:21:12.331Z,98144.98
2018-06-30T02:23:40.849Z,98170.34
2018-06-30T02:26:09.316Z,98194.70
2018-06-30T02:28:37.849Z,98132.80
2018-06-30T02:31:06.858Z,98156.14
2018-06-30T02:33:35.342Z,98168.31
2018-06-30T02:36:03.810Z,98169.33
2018-06-30T02:38:32.453Z,98189.63
2018-06-30T02:41:00.975Z,98166.28
2018-06-30T02:43:29.425Z,98164.26
2018-06-30T02:45:57.946Z,98176.43
2018-06-30T02:48:26.545Z,98172.37
2018-06-30T02:50:55.081Z,98187.59
2018-06-30T02:53:23.583Z,98205.86
2018-06-30T02:55:52.098Z,98174.41
2018-06-30T02:58:20.650Z,98195.72
2018-06-30T03:00:49.367Z,98218.03
2018-06-30T03:03:18.439Z,98182.52
2018-06-30T03:05:46.982Z,98214.99
2018-06-30T03:08:15.689Z,98230.22
2018-06-30T03:10:44.438Z,98206.88
2018-06-30T03:13:13.014Z,98225.14
2018-06-30T03:15:41.550Z,98204.84
2018-06-30T03:18:10.517Z,98237.32
2018-06-30T03:20:39.214Z,98233.26
2018-06-30T03:23:08.011Z,98230.22
2018-06-30T03:25:36.572Z,98248.48
2018-06-30T03:28:05.166Z,98244.42
2018-06-30T03:30:33.657Z,98230.22
2018-06-30T03:33:02.261Z,98239.34
2018-06-30T03:35:30.775Z,98246.45
2018-06-30T03:37:59.310Z,98239.34
2018-06-30T03:40:27.805Z,98241.37
2018-06-30T03:42:56.862Z,98252.55
2018-06-30T03:45:25.357Z,98263.70
2018-06-30T03:47:53.855Z,98238.34
2018-06-30T03:50:22.450Z,98262.69
2018-06-30T03:52:51.025Z,98262.69
2018-06-30T03:55:19.578Z,98249.50
2018-06-30T03:57:48.106Z,98259.64
2018-06-30T04:00:16.774Z,98208.91
2018-06-30T04:02:45.265Z,98202.81
2018-06-30T04:05:13.770Z,98205.86
2018-06-30T04:07:42.269Z,98192.67
2018-06-30T04:10:10.756Z,98151.06
2018-06-30T04:12:39.319Z,98064.81
2018-06-30T04:15:07.812Z,97944.06
2018-06-30T04:17:36.319Z,97955.22
2018-06-30T04:20:04.995Z,97928.84
2018-06-30T04:22:33.514Z,97892.31
2018-06-30T04:25:01.993Z,97840.56
2018-06-30T04:27:30.473Z,97773.59
2018-06-30T04:29:58.969Z,97745.19
2018-06-30T04:32:27.619Z,97806.06
2018-06-30T04:34:56.102Z,97846.66
2018-06-30T04:37:24.565Z,97922.75
2018-06-30T04:39:53.050Z,97922.75
2018-06-30T04:42:21.546Z,97965.37
2018-06-30T04:44:50.053Z,97980.59
2018-06-30T04:47:18.578Z,97953.20
2018-06-30T04:49:47.053Z,97845.64
2018-06-30T04:52:15.535Z,97772.58
2018-06-30T04:54:44.138Z,97807.08
2018-06-30T04:57:12.783Z,97851.72
2018-06-30T04:59:41.256Z,97857.81
2018-06-30T05:02:09.762Z,97837.52
2018-06-30T05:04:38.701Z,97820.27
2018-06-30T05:07:07.202Z,97601.11
2018-06-30T05:09:35.710Z,97424.58
2018-06-30T05:12:04.271Z,97279.50
2018-06-30T05:14:32.787Z,97131.39
2018-06-30T05:17:01.298Z,97066.47
2018-06-30T05:19:29.776Z,97201.39
2018-06-30T05:21:58.287Z,97300.80
2018-06-30T05:24:26.898Z,97435.73
2018-06-30T05:26:55.416Z,97174.00
2018-06-30T05:29:23.930Z,97197.33
2018-06-30T05:31:52.445Z,97290.66
2018-06-30T05:34:20.913Z,96999.52
2018-06-30T05:36:49.499Z,97037.05
2018-06-30T05:39:18.028Z,97021.83
2018-06-30T05:41:46.497Z,97091.83
2018-06-30T05:44:14.966Z,96886.91
2018-06-30T05:46:43.693Z,96711.43
2018-06-30T05:49:12.162Z,96516.69
2018-06-30T05:51:40.638Z,96645.50
2018-06-30T05:54:09.287Z,96677.95
2018-06-30T05:56:37.773Z,96871.70
2018-06-30T05:59:06.281Z,96879.81
2018-06-30T06:01:34.820Z,96829.09
2018-06-30T06:04:03.358Z,96815.91
2018-06-30T06:06:31.837Z,96864.59
2018-06-30T06:09:00.313Z,96993.42
2018-06-30T06:11:28.858Z,96829.09
2018-06-30T06:13:57.373Z,96812.87
2018-06-30T06:16:25.845Z,96763.16
2018-06-30T06:18:54.321Z,96882.86
2018-06-30T06:21:22.903Z,96809.82
2018-06-30T06:23:51.443Z,96841.27
2018-06-30T06:26:19.962Z,96891.98
2018-06-30T06:28:48.541Z,96813.88
2018-06-30T06:31:17.050Z,96715.48
2018-06-30T06:33:45.529Z,96571.45
2018-06-30T06:36:14.014Z,96640.42
2018-06-30T06:38:42.489Z,96932.56
2018-06-30T06:41:10.973Z,96876.77
2018-06-30T06:43:39.463Z,96652.59
2018-06-30T06:46:08.620Z,96689.12
2018-06-30T06:48:37.110Z,96727.66
2018-06-30T06:51:05.656Z,96514.66
2018-06-30T06:53:34.191Z,96668.83
2018-06-30T06:56:02.717Z,96780.41
2018-06-30T06:58:31.286Z,96721.58
2018-06-30T07:00:59.925Z,96769.25
2018-06-30T07:03:28.421Z,96627.23
2018-06-30T07:05:56.921Z,96523.78
2018-06-30T07:08:25.441Z,96694.19
2018-06-30T07:10:53.958Z,96678.97
2018-06-30T07:13:23.297Z,96375.70
2018-06-30T07:15:52.150Z,96660.72
2018-06-30T07:18:20.477Z,96527.84
2018-06-30T07:20:49.043Z,96696.22
2018-06-30T07:23:17.633Z,96769.25
2018-06-30T07:25:46.106Z,96874.74
2018-06-30T07:28:14.582Z,96961.98
2018-06-30T07:30:43.608Z,96960.97
2018-06-30T07:33:12.089Z,96913.29
2018-06-30T07:35:40.617Z,96923.43
2018-06-30T07:38:09.114Z,96840.25
2018-06-30T07:40:37.588Z,96832.14
2018-06-30T07:43:06.609Z,96862.56
2018-06-30T07:45:35.047Z,96931.55
2018-06-30T07:48:03.551Z,96890.97
2018-06-30T07:50:32.109Z,96849.38
2018-06-30T07:53:00.670Z,96861.55
2018-06-30T07:55:29.246Z,96802.72
2018-06-30T07:57:57.714Z,96874.74
2018-06-30T08:00:26.529Z,96804.75
2018-06-30T08:02:55.157Z,96748.96
2018-06-30T08:05:23.674Z,96768.23
2018-06-30T08:07:52.225Z,96727.66
2018-06-30T08:10:21.639Z,96705.34
2018-06-30T08:12:50.278Z,96735.77
2018-06-30T08:15:18.794Z,96777.36
2018-06-30T08:17:47.272Z,96634.34
2018-06-30T08:20:15.758Z,96629.27
2018-06-30T08:22:44.305Z,96642.45
2018-06-30T08:25:12.773Z,96644.48
2018-06-30T08:27:41.342Z,96601.89
2018-06-30T08:30:09.869Z,96608.98
2018-06-30T08:32:38.385Z,96588.70
2018-06-30T08:35:06.959Z,96565.38
2018-06-30T08:37:35.540Z,96511.61
2018-06-30T08:40:04.090Z,96521.75
2018-06-30T08:42:32.615Z,96555.23
2018-06-30T08:45:01.493Z,96459.89
2018-06-30T08:47:30.133Z,96543.05
2018-06-30T08:49:58.740Z,96456.84
2018-06-30T08:52:27.254Z,96524.80
2018-06-30T08:54:56.080Z,96448.73
2018-06-30T08:57:24.665Z,96413.23
2018-06-30T08:59:53.340Z,96378.75
2018-06-30T09:02:21.930Z,96348.32
2018-06-30T09:06:19.991Z,96326.00
2018-06-30T09:08:48.605Z,96319.92
2018-06-30T09:11:17.226Z,96333.11
2018-06-30T09:13:45.709Z,96277.33
2018-06-30T09:16:14.228Z,96243.86
2018-06-30T09:18:43.039Z,96252.98
2018-06-30T09:21:11.916Z,96270.22
2018-06-30T09:23:40.421Z,96284.42
2018-06-30T09:26:08.906Z,96386.86
2018-06-30T09:28:37.564Z,96306.73
2018-06-30T09:31:06.138Z,96297.61
2018-06-30T09:33:34.669Z,96207.34
2018-06-30T09:36:03.336Z,96249.94
2018-06-30T09:38:32.425Z,96274.28
2018-06-30T09:41:01.126Z,96317.89
2018-06-30T09:43:29.589Z,96206.33
2018-06-30T09:45:58.565Z,96183.00
2018-06-30T09:48:27.088Z,96184.02
2018-06-30T09:50:55.585Z,96098.83
2018-06-30T09:53:24.125Z,96145.48
2018-06-30T09:55:52.604Z,96111.00
2018-06-30T09:58:21.185Z,96082.60
2018-06-30T10:00:50.751Z,96045.08
2018-06-30T10:03:19.682Z,95969.02
2018-06-30T10:05:48.185Z,96054.20
2018-06-30T10:08:16.722Z,96057.25
2018-06-30T10:10:45.319Z,96040.01
2018-06-30T10:13:13.817Z,96010.59
2018-06-30T10:15:42.405Z,96035.95
2018-06-30T10:18:11.266Z,95919.33
2018-06-30T10:20:39.819Z,96061.30
2018-06-30T10:23:08.299Z,96019.72
2018-06-30T10:25:36.848Z,95973.08
2018-06-30T10:28:05.409Z,96054.20
2018-06-30T10:30:33.946Z,96010.59
2018-06-30T10:33:02.647Z,95951.78
2018-06-30T10:35:31.394Z,95916.28
2018-06-30T10:38:00.066Z,95904.12
2018-06-30T10:40:28.725Z,95919.33
2018-06-30T10:42:57.206Z,95947.72
2018-06-30T10:45:25.798Z,95945.70
2018-06-30T10:47:54.378Z,95950.77
2018-06-30T10:50:22.945Z,95917.30
2018-06-30T10:52:51.483Z,95834.14
2018-06-30T10:55:19.976Z,95902.09
2018-06-30T10:57:48.610Z,95886.88
2018-06-30T11:00:17.203Z,95818.94
2018-06-30T11:02:45.645Z,95774.31
2018-06-30T11:05:14.273Z,95908.17
2018-06-30T11:07:42.710Z,95766.20
2018-06-30T11:10:11.358Z,95756.06
2018-06-30T11:12:40.176Z,95800.68
2018-06-30T11:15:09.198Z,95779.38
2018-06-30T11:17:37.722Z,95747.95
2018-06-30T11:20:06.329Z,95786.48
2018-06-30T11:22:34.832Z,95797.64
2018-06-30T11:25:03.357Z,95774.31
2018-06-30T11:27:31.870Z,95731.73
2018-06-30T11:30:00.384Z,95822.98
2018-06-30T11:32:28.884Z,95826.03
2018-06-30T11:34:57.388Z,95757.08
2018-06-30T11:37:25.871Z,95853.41
2018-06-30T11:39:55.033Z,95778.37
2018-06-30T11:42:23.538Z,95819.95
2018-06-30T11:44:52.064Z,95786.48
2018-06-30T11:47:20.754Z,95773.30
2018-06-30T11:49:49.289Z,95556.30
2018-06-30T11:52:18.262Z,95641.47
2018-06-30T11:54:46.754Z,95620.19
2018-06-30T11:57:15.238Z,95655.67
2018-06-30T11:59:43.757Z,95589.77
2018-06-30T12:02:12.386Z,95607.00
2018-06-30T12:04:40.753Z,95692.17
2018-06-30T12:07:09.414Z,95746.94
2018-06-30T12:09:37.958Z,95662.77
2018-06-30T12:12:06.474Z,95615.11
2018-06-30T12:14:34.954Z,95619.17
2018-06-30T12:17:03.827Z,95621.20
2018-06-30T12:19:32.310Z,95568.47
2018-06-30T12:22:00.842Z,95533.99
2018-06-30T12:24:29.338Z,95547.17
2018-06-30T12:26:57.842Z,95523.85
2018-06-30T12:29:26.400Z,95625.25
2018-06-30T12:31:54.929Z,95619.17
2018-06-30T12:34:23.485Z,95647.56
2018-06-30T12:36:52.003Z,95562.38
2018-06-30T12:39:20.587Z,95483.30
2018-06-30T12:41:49.337Z,95571.51
2018-06-30T12:44:17.852Z,95610.04
2018-06-30T12:46:46.333Z,95599.90
2018-06-30T12:49:14.838Z,95585.70
2018-06-30T12:51:43.320Z,95527.91
2018-06-30T12:54:11.898Z,95494.45
2018-06-30T12:56:40.383Z,95526.89
2018-06-30T12:59:08.901Z,95501.55
2018-06-30T13:01:37.479Z,95389.00
2018-06-30T13:04:06.169Z,95474.17
2018-06-30T13:06:34.914Z,95421.44
2018-06-30T13:09:03.944Z,95376.83
2018-06-30T13:11:32.425Z,95425.50
2018-06-30T13:14:00.905Z,95351.48
2018-06-30T13:16:29.524Z,95374.80
2018-06-30T13:18:57.984Z,95515.74
2018-06-30T13:21:26.958Z,95482.28
2018-06-30T13:23:55.465Z,95555.28
2018-06-30T13:26:23.974Z,95527.91
2018-06-30T13:28:52.693Z,95517.77
2018-06-30T13:31:21.209Z,95468.08
2018-06-30T13:33:49.726Z,95540.08
2018-06-30T13:36:18.268Z,95447.80
2018-06-30T13:38:46.879Z,95469.09
2018-06-30T13:41:15.404Z,95393.05
2018-06-30T13:43:43.995Z,95430.56
2018-06-30T13:46:12.509Z,95445.78
2018-06-30T13:48:41.045Z,95442.73
2018-06-30T13:51:09.593Z,95410.29
2018-06-30T13:53:38.134Z,95358.58
2018-06-30T13:56:07.173Z,95345.39
2018-06-30T13:58:35.714Z,95361.63
2018-06-30T14:01:04.728Z,95347.42
2018-06-30T14:03:33.258Z,95352.49
2018-06-30T14:06:01.830Z,95367.70
2018-06-30T14:08:30.370Z,95401.16
2018-06-30T14:10:58.892Z,95432.59
2018-06-30T14:13:27.435Z,95391.02
2018-06-30T14:15:55.906Z,95378.86
2018-06-30T14:18:24.457Z,95226.77
2018-06-30T14:20:53.317Z,95328.16
2018-06-30T14:23:21.881Z,95405.22
2018-06-30T14:25:50.395Z,95433.61
2018-06-30T14:28:18.982Z,95415.36
2018-06-30T14:30:47.458Z,95393.05
2018-06-30T14:33:15.970Z,95373.78
2018-06-30T14:35:44.541Z,95364.66
2018-06-30T14:38:13.049Z,95237.92
2018-06-30T14:40:41.545Z,95322.08
2018-06-30T14:43:10.272Z,95373.78
2018-06-30T14:45:38.766Z,95348.44
2018-06-30T14:48:07.242Z,95385.95
2018-06-30T14:50:35.946Z,95432.59
2018-06-30T14:53:04.506Z,95220.69
2018-06-30T14:55:33.058Z,95207.50
2018-06-30T14:58:01.618Z,95280.50
2018-06-30T15:00:30.113Z,95291.66
2018-06-30T15:02:58.618Z,95284.56
2018-06-30T15:05:27.346Z,95399.13
2018-06-30T15:07:55.890Z,95370.74
2018-06-30T15:10:24.410Z,95373.78
2018-06-30T15:12:52.998Z,95307.88
2018-06-30T15:15:21.494Z,95335.26
2018-06-30T15:17:50.070Z,95398.13
2018-06-30T15:20:18.651Z,95326.13
2018-06-30T15:22:47.242Z,95290.64
2018-06-30T15:25:15.777Z,95404.20
2018-06-30T15:27:44.342Z,95394.06
2018-06-30T15:30:12.846Z,95358.58
2018-06-30T15:32:41.443Z,95309.91
2018-06-30T15:35:09.959Z,95347.42
2018-06-30T15:37:38.432Z,95361.63
2018-06-30T15:40:07.661Z,95372.77
2018-06-30T15:42:36.182Z,95366.69
2018-06-30T15:45:05.937Z,95412.31
2018-06-30T15:47:34.925Z,95343.37
2018-06-30T15:50:03.476Z,95325.12
2018-06-30T15:52:32.186Z,95279.49
2018-06-30T15:55:00.821Z,95346.41
2018-06-30T15:57:29.290Z,95320.05
2018-06-30T15:59:57.781Z,95381.90
2018-06-30T16:02:26.347Z,95270.36
2018-06-30T16:04:54.861Z,95263.27
2018-06-30T16:07:23.566Z,95345.39
2018-06-30T16:09:52.505Z,95384.94
2018-06-30T16:12:21.003Z,95322.08
2018-06-30T16:14:49.646Z,95412.31
2018-06-30T16:17:18.141Z,95409.27
2018-06-30T16:19:46.638Z,95338.30
2018-06-30T16:22:15.121Z,95298.75
2018-06-30T16:24:43.629Z,95391.02
2018-06-30T16:27:12.139Z,95272.39
2018-06-30T16:29:40.649Z,95385.95
2018-06-30T16:32:09.171Z,95422.45
2018-06-30T16:34:37.700Z,95466.05
2018-06-30T16:37:06.223Z,95449.83
2018-06-30T16:39:34.726Z,95421.44
2018-06-30T16:42:03.325Z,95433.61
2018-06-30T16:44:32.449Z,95421.44
2018-06-30T16:47:00.991Z,95418.40
2018-06-30T16:49:29.663Z,95375.81
2018-06-30T16:51:58.218Z,95383.92
2018-06-30T16:54:26.878Z,95427.52
2018-06-30T16:56:55.382Z,95421.44
2018-06-30T16:59:23.885Z,95412.31
2018-06-30T17:01:52.424Z,95417.39
2018-06-30T17:04:21.273Z,95470.11
2018-06-30T17:06:49.894Z,95423.47
2018-06-30T17:09:18.388Z,95442.73
2018-06-30T17:11:46.910Z,95417.39
2018-06-30T17:14:15.428Z,95413.33
2018-06-30T17:16:43.914Z,95503.58
2018-06-30T17:19:12.431Z,95470.11
2018-06-30T17:21:40.918Z,95485.32
2018-06-30T17:24:09.531Z,95473.16
2018-06-30T17:26:38.042Z,95441.72
2018-06-30T17:29:06.574Z,95473.16
2018-06-30T17:31:35.082Z,95492.42
2018-06-30T17:34:03.591Z,95456.93
2018-06-30T17:36:32.125Z,95508.64
2018-06-30T17:39:00.605Z,95499.52
2018-06-30T17:41:29.481Z,95492.42
2018-06-30T17:43:57.953Z,95569.48
2018-06-30T17:46:26.480Z,95563.40
2018-06-30T17:48:55.184Z,95577.59
2018-06-30T17:51:23.742Z,95521.83
2018-06-30T17:53:52.358Z,95386.97
2018-06-30T17:56:20.865Z,95300.78
2018-06-30T17:58:49.775Z,95216.63
2018-06-30T18:01:18.289Z,95208.52
2018-06-30T18:03:46.805Z,94941.88
2018-06-30T18:06:15.392Z,94995.61
2018-06-30T18:08:43.885Z,94946.94
2018-06-30T18:11:12.354Z,94917.55
2018-06-30T18:13:41.356Z,94765.47
2018-06-30T18:16:09.887Z,94713.77
2018-06-30T18:18:38.567Z,94537.39
2018-06-30T18:21:07.122Z,94680.32
2018-06-30T18:23:35.671Z,94517.11
2018-06-30T18:26:04.206Z,94737.09
2018-06-30T18:28:32.763Z,95218.66
2018-06-30T18:31:01.285Z,95332.21
2018-06-30T18:33:29.902Z,95460.98
2018-06-30T18:35:58.421Z,95515.74
2018-06-30T18:38:26.901Z,95708.41
2018-06-30T18:40:55.526Z,95792.56
2018-06-30T18:43:24.036Z,95807.78
2018-06-30T18:45:52.515Z,95843.27
2018-06-30T18:48:21.544Z,95904.12
2018-06-30T18:50:50.022Z,95922.37
2018-06-30T18:53:18.496Z,95918.31
2018-06-30T18:55:46.989Z,95900.06
2018-06-30T18:58:15.714Z,95889.92
2018-06-30T19:00:44.189Z,95955.84
2018-06-30T19:03:12.707Z,95848.34
2018-06-30T19:05:41.585Z,95707.39
2018-06-30T19:08:10.144Z,95644.52
2018-06-30T19:10:38.969Z,95475.19
2018-06-30T19:13:07.529Z,95488.36
2018-06-30T19:15:36.041Z,95614.09
2018-06-30T19:18:04.580Z,95746.94
2018-06-30T19:20:33.123Z,95699.28
2018-06-30T19:23:01.593Z,95475.19
2018-06-30T19:25:30.578Z,95480.25
2018-06-30T19:27:59.048Z,95610.04
2018-06-30T19:30:27.713Z,95621.20
2018-06-30T19:32:56.328Z,95521.83
2018-06-30T19:35:30.257Z,95782.42
2018-06-30T19:37:58.781Z,95904.12
2018-06-30T19:40:27.774Z,95984.23
2018-06-30T19:42:56.238Z,95881.81
2018-06-30T19:45:25.179Z,96167.80
2018-06-30T19:47:53.889Z,96123.17
2018-06-30T19:50:22.394Z,96206.33
2018-06-30T19:52:51.005Z,96324.99
2018-06-30T19:55:20.107Z,96333.11
2018-06-30T19:57:48.717Z,96323.98
2018-06-30T20:00:17.233Z,96469.02
2018-06-30T20:02:45.746Z,96469.02
2018-06-30T20:05:14.295Z,96468.00
2018-06-30T20:07:48.222Z,96516.69
2018-06-30T20:10:16.825Z,96535.95
2018-06-30T20:12:45.565Z,96583.62
2018-06-30T20:15:14.355Z,96629.27
2018-06-30T20:17:42.997Z,96612.03
2018-06-30T20:20:12.026Z,96626.23
2018-06-30T20:22:40.501Z,96626.23
2018-06-30T20:25:09.193Z,96612.03
2018-06-30T20:27:37.687Z,96694.19
2018-06-30T20:30:06.801Z,96631.30
2018-06-30T20:32:35.323Z,96606.95
2018-06-30T20:35:03.872Z,96671.88
2018-06-30T20:37:32.426Z,96710.41
2018-06-30T20:40:00.941Z,96676.94
2018-06-30T20:42:29.459Z,96658.69
2018-06-30T20:44:58.072Z,96681.00
2018-06-30T20:47:26.619Z,96711.43
2018-06-30T20:49:55.134Z,96734.76
2018-06-30T20:52:23.710Z,96706.36
2018-06-30T20:54:52.169Z,96711.43
2018-06-30T20:57:20.865Z,96771.28
2018-06-30T20:59:49.460Z,96791.56
2018-06-30T21:02:17.973Z,96814.89
2018-06-30T21:04:46.861Z,96792.58
2018-06-30T21:07:15.365Z,96815.91
2018-06-30T21:09:43.860Z,96784.47
2018-06-30T21:12:12.394Z,96856.48
2018-06-30T21:14:40.929Z,96882.86
2018-06-30T21:17:09.465Z,96908.22
2018-06-30T21:19:38.433Z,96960.97
2018-06-30T21:22:07.368Z,96891.98
2018-06-30T21:24:36.256Z,96861.55
2018-06-30T21:27:05.275Z,96944.73
2018-06-30T21:29:33.831Z,96911.27
2018-06-30T21:32:02.493Z,96942.70
2018-06-30T21:34:31.457Z,96990.38
2018-06-30T21:37:01.796Z,96958.94
2018-06-30T21:39:30.301Z,96969.08
2018-06-30T21:41:58.821Z,97037.05
2018-06-30T21:44:27.729Z,97018.78
2018-06-30T21:46:56.245Z,97037.05
2018-06-30T21:49:24.729Z,97066.47
2018-06-30T21:51:53.402Z,97077.62
2018-06-30T21:54:21.929Z,97081.69
2018-06-30T21:56:50.776Z,97041.11
2018-06-30T21:59:19.438Z,97078.64
2018-06-30T22:01:47.991Z,97078.64
2018-06-30T22:04:16.549Z,97102.98
2018-06-30T22:06:45.042Z,97065.45
2018-06-30T22:09:13.717Z,97081.69
2018-06-30T22:11:42.181Z,97111.10
2018-06-30T22:14:10.673Z,97155.73
2018-06-30T22:16:39.242Z,97149.66
2018-06-30T22:19:07.870Z,97132.41
2018-06-30T22:21:36.368Z,97146.61
2018-06-30T22:24:04.917Z,97195.30
2018-06-30T22:26:33.562Z,97178.05
2018-06-30T22:29:03.117Z,97156.75
2018-06-30T22:31:31.709Z,97158.78
2018-06-30T22:34:00.259Z,97208.48
2018-06-30T22:36:28.761Z,97278.48
2018-06-30T22:38:57.363Z,97249.07
2018-06-30T22:41:25.910Z,97290.66
2018-06-30T22:43:54.385Z,97269.36
2018-06-30T22:46:23.264Z,97215.59
2018-06-30T22:48:51.895Z,97287.62
2018-06-30T22:51:20.405Z,97303.84
2018-06-30T22:53:48.986Z,97342.41
2018-06-30T22:56:17.489Z,97289.64
2018-06-30T22:58:45.997Z,97301.82
2018-06-30T23:01:14.529Z,97326.17
2018-06-30T23:03:43.063Z,97278.48
2018-06-30T23:06:11.557Z,97304.87
2018-06-30T23:08:45.949Z,97326.17
2018-06-30T23:11:14.449Z,97292.69
2018-06-30T23:13:42.919Z,97303.84
2018-06-30T23:16:11.493Z,97303.84
2018-06-30T23:18:40.862Z,97360.66
2018-06-30T23:21:09.329Z,97364.72
2018-06-30T23:23:37.805Z,97338.34
2018-06-30T23:26:06.445Z,97343.41
2018-06-30T23:28:34.941Z,97396.17
2018-06-30T23:31:03.513Z,97378.92
2018-06-30T23:33:32.234Z,97381.97
2018-06-30T23:36:00.789Z,97407.33
2018-06-30T23:38:29.349Z,97424.58
2018-06-30T23:40:57.877Z,97409.36
2018-06-30T23:43:26.495Z,97387.04
2018-06-30T23:45:55.353Z,97318.05
2018-06-30T23:48:23.930Z,97422.55
2018-06-30T23:50:52.421Z,97393.13
2018-06-30T23:53:20.929Z,97421.53
2018-06-30T23:55:49.550Z,97415.45
2018-06-30T23:58:18.054Z,97409.36
